»·PEaware :: WAT202 KAVX-KSBA

WAT202 :: KAVX-KSBA

FLIGHT INFORMATION

Flight Status: Arrived
Operator:
Walker Air Transport
More flights by this operator :: More flights under this callsign
Pilot: Nick L. (7253)
Aircraft: BEECH AIRCRAFT SUPER KING AIR 350
(B350)
More flights by this aircraft type
Origin: KAVX Catalina
United States
Destination: KSBA Santa Barbara Mun
United States
More flights between these airports :: More routes between these airports
Route: SXC V208 VTU VTU282 KWANG
File this flight plan on PilotEdge
Remarks:
Altitude:
(Current/Filed)
8,000ft
Speed:
(Current/Filed)
230kts
Departed: 06-Mar-21 03:07 PM
Arrived: 06-Mar-21 03:34 PM
Distance/Time
Traveled:
94nm/0:27
Distance/Time
To Go:
Arrived

Flight Plot

Page will automatically refresh every two minutes.


Map Options




Map Legend


Flown Route
Filed Route
Departure Airport
Arrival Airport
Navaid (VOR, NDB)
Fix

Horizontal Profiles

Position Reports

Time Latitude Longitude Heading Altitude Ground
Speed
06-Mar-21 14:21 33.403881 -118.414878 254 1571ft 0kts
06-Mar-21 14:22 33.403881 -118.414878 254 1571ft 0kts
06-Mar-21 14:23 33.403881 -118.414878 254 1571ft 0kts
06-Mar-21 14:24 33.403881 -118.414878 254 1571ft 0kts
06-Mar-21 14:25 33.403881 -118.414878 254 1571ft 0kts
06-Mar-21 14:26 33.403881 -118.414878 254 1571ft 0kts
06-Mar-21 14:27 33.403881 -118.414878 254 1571ft 0kts
06-Mar-21 14:28 33.403881 -118.414878 254 1571ft 0kts
06-Mar-21 14:29 33.403881 -118.414878 254 1571ft 0kts
06-Mar-21 14:30 33.403881 -118.414878 254 1571ft 0kts
06-Mar-21 14:31 33.403881 -118.414878 254 1571ft 0kts
06-Mar-21 14:32 33.403881 -118.414878 254 1571ft 0kts
06-Mar-21 14:33 33.403881 -118.414878 254 1571ft 0kts
06-Mar-21 14:34 33.403881 -118.414878 254 1571ft 0kts
06-Mar-21 14:35 33.403881 -118.414878 254 1571ft 0kts
06-Mar-21 14:36 33.403881 -118.414878 254 1571ft 0kts
06-Mar-21 14:37 33.403881 -118.414878 254 1571ft 0kts
06-Mar-21 14:38 33.403881 -118.414878 254 1571ft 0kts
06-Mar-21 14:39 33.403881 -118.414878 254 1571ft 0kts
06-Mar-21 14:40 33.403881 -118.414878 254 1571ft 0kts
06-Mar-21 14:41 33.403881 -118.414878 254 1571ft 0kts
06-Mar-21 14:42 33.403881 -118.414878 254 1571ft 0kts
06-Mar-21 14:43 33.403881 -118.414878 254 1571ft 0kts
06-Mar-21 14:44 33.403881 -118.414878 254 1571ft 0kts
06-Mar-21 14:45 33.403881 -118.414878 254 1571ft 0kts
06-Mar-21 14:46 33.403881 -118.414878 254 1571ft 0kts
06-Mar-21 14:47 33.403881 -118.414878 254 1571ft 0kts
06-Mar-21 14:48 33.403881 -118.414878 254 1571ft 0kts
06-Mar-21 14:49 33.403881 -118.414878 254 1571ft 0kts
06-Mar-21 14:50 33.403881 -118.414878 254 1571ft 0kts
06-Mar-21 14:51 33.403881 -118.414878 254 1571ft 0kts
06-Mar-21 14:52 33.403881 -118.414879 254 1571ft 0kts
06-Mar-21 14:53 33.403881 -118.414879 254 1571ft 0kts
06-Mar-21 14:54 33.403881 -118.414878 254 1571ft 0kts
06-Mar-21 14:55 33.403881 -118.414878 254 1571ft 0kts
06-Mar-21 14:56 33.403881 -118.414879 254 1571ft 0kts
06-Mar-21 14:57 33.404091 -118.415007 3 1571ft 5kts
06-Mar-21 14:58 33.406667 -118.412253 54 1571ft 17kts
06-Mar-21 14:59 33.406990 -118.411703 53 1571ft 0kts
06-Mar-21 15:00 33.406990 -118.411703 53 1571ft 0kts
06-Mar-21 15:01 33.407158 -118.411444 53 1571ft 0kts
06-Mar-21 15:02 33.407158 -118.411444 53 1571ft 0kts
06-Mar-21 15:03 33.407158 -118.411444 53 1571ft 0kts
06-Mar-21 15:04 33.407159 -118.411442 53 1571ft 0kts
06-Mar-21 15:05 33.407410 -118.411572 279 1571ft 7kts
06-Mar-21 15:06 33.392852 -118.433422 231 2181ft 154kts
06-Mar-21 15:07 33.384203 -118.481143 331 3758ft 175kts
06-Mar-21 15:08 33.429962 -118.500888 317 5401ft 181kts
06-Mar-21 15:09 33.464025 -118.546255 309 7142ft 184kts
06-Mar-21 15:10 33.498649 -118.595648 309 8029ft 218kts
06-Mar-21 15:11 33.540346 -118.654894 308 8015ft 245kts
06-Mar-21 15:12 33.585831 -118.720310 308 8011ft 261kts
06-Mar-21 15:13 33.637157 -118.783249 317 8031ft 266kts
06-Mar-21 15:14 33.692792 -118.842440 316 8024ft 267kts
06-Mar-21 15:15 33.748480 -118.902492 316 8025ft 268kts
06-Mar-21 15:16 33.803452 -118.961920 316 8027ft 262kts
06-Mar-21 15:17 33.857747 -119.020605 316 8026ft 260kts
06-Mar-21 15:18 33.911444 -119.078875 316 8025ft 259kts
06-Mar-21 15:19 33.965100 -119.137224 316 8022ft 259kts
06-Mar-21 15:20 34.018538 -119.195383 316 8011ft 260kts
06-Mar-21 15:21 34.072556 -119.254361 316 8002ft 261kts
06-Mar-21 15:22 34.126353 -119.313162 316 8002ft 260kts
06-Mar-21 15:23 34.178988 -119.370893 316 6554ft 245kts
06-Mar-21 15:24 34.228290 -119.425084 316 5038ft 238kts
06-Mar-21 15:25 34.273915 -119.475158 317 3922ft 222kts
06-Mar-21 15:26 34.313913 -119.525404 298 3939ft 201kts
06-Mar-21 15:27 34.336746 -119.585899 297 3941ft 195kts
06-Mar-21 15:28 34.358490 -119.641708 297 3481ft 177kts
06-Mar-21 15:29 34.379028 -119.694733 296 2480ft 163kts
06-Mar-21 15:30 34.400478 -119.742500 309 1615ft 156kts
06-Mar-21 15:31 34.426377 -119.781555 289 1238ft 133kts
06-Mar-21 15:32 34.428189 -119.820503 266 295ft 104kts
06-Mar-21 15:33 34.427677 -119.845770 274 15ft 10kts
06-Mar-21 15:34 34.428443 -119.845402 61 15ft 0kts
06-Mar-21 15:35 34.429791 -119.842071 62 15ft 15kts
06-Mar-21 15:36 34.431708 -119.836392 67 15ft 13kts
06-Mar-21 15:37 34.432882 -119.835981 69 15ft 0kts
06-Mar-21 15:38 34.432882 -119.835982 69 15ft 0kts
06-Mar-21 15:39 34.432882 -119.835982 69 15ft 0kts
06-Mar-21 15:40 34.432882 -119.835982 69 15ft 0kts

Navigation Log

Ident Type
Flight plan parsing failed, navigation log unavailable